sensor_id;sensor_type;location;lat;lon;timestamp;P1;durP1;ratioP1;P2;durP2;ratioP2
52534;SDS011;38443;53.164;5.802;2024-02-21T00:01:06;10.77;;;3.58;;
52534;SDS011;38443;53.164;5.802;2024-02-21T00:03:39;12.77;;;3.95;;
52534;SDS011;38443;53.164;5.802;2024-02-21T00:07:03;9.07;;;3.92;;
52534;SDS011;38443;53.164;5.802;2024-02-21T00:10:28;10.25;;;3.60;;
52534;SDS011;38443;53.164;5.802;2024-02-21T00:13:53;17.98;;;4.43;;
52534;SDS011;38443;53.164;5.802;2024-02-21T00:17:16;16.45;;;4.13;;
52534;SDS011;38443;53.164;5.802;2024-02-21T00:20:39;20.17;;;4.78;;
52534;SDS011;38443;53.164;5.802;2024-02-21T00:24:03;12.80;;;4.07;;
52534;SDS011;38443;53.164;5.802;2024-02-21T00:27:27;13.18;;;4.55;;
52534;SDS011;38443;53.164;5.802;2024-02-21T00:30:51;11.38;;;4.55;;
52534;SDS011;38443;53.164;5.802;2024-02-21T00:34:15;12.07;;;4.30;;
52534;SDS011;38443;53.164;5.802;2024-02-21T00:37:39;11.82;;;4.35;;
52534;SDS011;38443;53.164;5.802;2024-02-21T00:41:03;11.35;;;3.92;;
52534;SDS011;38443;53.164;5.802;2024-02-21T00:44:27;15.52;;;4.63;;
52534;SDS011;38443;53.164;5.802;2024-02-21T00:47:51;18.55;;;4.22;;
52534;SDS011;38443;53.164;5.802;2024-02-21T00:51:15;15.38;;;5.30;;
52534;SDS011;38443;53.164;5.802;2024-02-21T00:54:39;13.10;;;4.22;;
52534;SDS011;38443;53.164;5.802;2024-02-21T00:58:03;18.13;;;4.60;;
52534;SDS011;38443;53.164;5.802;2024-02-21T01:01:27;13.30;;;5.00;;
52534;SDS011;38443;53.164;5.802;2024-02-21T01:04:51;14.93;;;4.47;;
52534;SDS011;38443;53.164;5.802;2024-02-21T01:08:15;18.17;;;4.63;;
52534;SDS011;38443;53.164;5.802;2024-02-21T01:11:39;12.32;;;5.53;;
52534;SDS011;38443;53.164;5.802;2024-02-21T01:15:03;15.50;;;5.40;;
52534;SDS011;38443;53.164;5.802;2024-02-21T01:18:27;15.48;;;6.38;;
52534;SDS011;38443;53.164;5.802;2024-02-21T01:21:50;11.82;;;5.05;;
52534;SDS011;38443;53.164;5.802;2024-02-21T01:25:14;12.48;;;5.30;;
52534;SDS011;38443;53.164;5.802;2024-02-21T01:28:40;20.77;;;5.70;;
52534;SDS011;38443;53.164;5.802;2024-02-21T01:32:04;16.33;;;6.85;;
52534;SDS011;38443;53.164;5.802;2024-02-21T01:35:28;17.80;;;6.22;;
52534;SDS011;38443;53.164;5.802;2024-02-21T01:38:52;17.42;;;5.75;;
52534;SDS011;38443;53.164;5.802;2024-02-21T01:42:16;14.75;;;5.63;;
52534;SDS011;38443;53.164;5.802;2024-02-21T01:45:41;12.32;;;5.53;;
52534;SDS011;38443;53.164;5.802;2024-02-21T01:49:05;14.52;;;5.18;;
52534;SDS011;38443;53.164;5.802;2024-02-21T01:52:29;12.40;;;4.53;;
52534;SDS011;38443;53.164;5.802;2024-02-21T01:56:02;23.30;;;5.57;;
52534;SDS011;38443;53.164;5.802;2024-02-21T01:59:26;15.40;;;5.10;;
52534;SDS011;38443;53.164;5.802;2024-02-21T02:02:50;12.65;;;4.97;;
52534;SDS011;38443;53.164;5.802;2024-02-21T02:06:14;14.05;;;4.85;;
52534;SDS011;38443;53.164;5.802;2024-02-21T02:09:38;13.98;;;5.40;;
52534;SDS011;38443;53.164;5.802;2024-02-21T02:13:02;20.77;;;5.22;;
52534;SDS011;38443;53.164;5.802;2024-02-21T02:16:26;18.65;;;5.30;;
52534;SDS011;38443;53.164;5.802;2024-02-21T02:19:50;12.90;;;5.47;;
52534;SDS011;38443;53.164;5.802;2024-02-21T02:23:29;15.40;;;4.63;;
52534;SDS011;38443;53.164;5.802;2024-02-21T02:26:53;17.52;;;5.18;;
52534;SDS011;38443;53.164;5.802;2024-02-21T02:30:19;16.95;;;6.45;;
52534;SDS011;38443;53.164;5.802;2024-02-21T02:33:43;13.70;;;5.60;;
52534;SDS011;38443;53.164;5.802;2024-02-21T02:37:06;16.52;;;5.72;;
52534;SDS011;38443;53.164;5.802;2024-02-21T02:40:31;10.48;;;4.75;;
52534;SDS011;38443;53.164;5.802;2024-02-21T02:43:55;14.65;;;5.10;;
52534;SDS011;38443;53.164;5.802;2024-02-21T02:47:18;15.60;;;5.18;;
52534;SDS011;38443;53.164;5.802;2024-02-21T02:50:44;20.13;;;5.82;;
52534;SDS011;38443;53.164;5.802;2024-02-21T02:54:09;18.13;;;5.18;;
52534;SDS011;38443;53.164;5.802;2024-02-21T02:57:33;14.98;;;5.05;;
52534;SDS011;38443;53.164;5.802;2024-02-21T03:00:57;14.63;;;5.93;;
52534;SDS011;38443;53.164;5.802;2024-02-21T03:04:21;17.38;;;4.82;;
52534;SDS011;38443;53.164;5.802;2024-02-21T03:07:45;16.48;;;6.13;;
52534;SDS011;38443;53.164;5.802;2024-02-21T03:11:09;14.18;;;5.40;;
52534;SDS011;38443;53.164;5.802;2024-02-21T03:14:33;16.02;;;5.32;;
52534;SDS011;38443;53.164;5.802;2024-02-21T03:17:57;18.75;;;5.43;;
52534;SDS011;38443;53.164;5.802;2024-02-21T03:21:21;18.55;;;4.97;;
52534;SDS011;38443;53.164;5.802;2024-02-21T03:24:45;16.92;;;4.90;;
52534;SDS011;38443;53.164;5.802;2024-02-21T03:28:09;13.02;;;6.18;;
52534;SDS011;38443;53.164;5.802;2024-02-21T03:31:34;18.92;;;5.40;;
52534;SDS011;38443;53.164;5.802;2024-02-21T03:34:57;18.60;;;5.35;;
52534;SDS011;38443;53.164;5.802;2024-02-21T03:38:21;14.82;;;5.45;;
52534;SDS011;38443;53.164;5.802;2024-02-21T03:41:46;15.18;;;5.45;;
52534;SDS011;38443;53.164;5.802;2024-02-21T03:45:10;11.90;;;4.65;;
52534;SDS011;38443;53.164;5.802;2024-02-21T03:48:34;16.17;;;5.30;;
52534;SDS011;38443;53.164;5.802;2024-02-21T03:51:57;18.08;;;5.53;;
52534;SDS011;38443;53.164;5.802;2024-02-21T03:55:21;11.10;;;4.72;;
52534;SDS011;38443;53.164;5.802;2024-02-21T03:58:45;17.33;;;5.50;;
52534;SDS011;38443;53.164;5.802;2024-02-21T04:02:09;15.18;;;4.85;;
52534;SDS011;38443;53.164;5.802;2024-02-21T04:05:33;18.75;;;5.22;;
52534;SDS011;38443;53.164;5.802;2024-02-21T04:08:57;15.40;;;4.85;;
52534;SDS011;38443;53.164;5.802;2024-02-21T04:12:20;13.45;;;5.00;;
52534;SDS011;38443;53.164;5.802;2024-02-21T04:15:44;17.15;;;5.15;;
52534;SDS011;38443;53.164;5.802;2024-02-21T04:19:08;14.60;;;4.63;;
52534;SDS011;38443;53.164;5.802;2024-02-21T04:22:38;8.25;;;3.85;;
52534;SDS011;38443;53.164;5.802;2024-02-21T04:26:02;15.23;;;4.40;;
52534;SDS011;38443;53.164;5.802;2024-02-21T04:29:26;13.32;;;4.70;;
52534;SDS011;38443;53.164;5.802;2024-02-21T04:32:50;16.65;;;4.68;;
52534;SDS011;38443;53.164;5.802;2024-02-21T04:36:14;19.25;;;5.53;;
52534;SDS011;38443;53.164;5.802;2024-02-21T04:39:37;15.60;;;5.18;;
52534;SDS011;38443;53.164;5.802;2024-02-21T04:43:01;17.33;;;5.90;;
52534;SDS011;38443;53.164;5.802;2024-02-21T04:46:25;15.35;;;5.50;;
52534;SDS011;38443;53.164;5.802;2024-02-21T04:49:50;14.13;;;5.15;;
52534;SDS011;38443;53.164;5.802;2024-02-21T04:53:13;15.07;;;5.20;;
52534;SDS011;38443;53.164;5.802;2024-02-21T04:56:37;19.73;;;5.15;;
52534;SDS011;38443;53.164;5.802;2024-02-21T05:00:01;18.33;;;4.90;;
52534;SDS011;38443;53.164;5.802;2024-02-21T05:03:25;15.20;;;5.03;;
52534;SDS011;38443;53.164;5.802;2024-02-21T05:06:49;27.35;;;5.97;;
52534;SDS011;38443;53.164;5.802;2024-02-21T05:10:13;12.80;;;4.78;;
52534;SDS011;38443;53.164;5.802;2024-02-21T05:13:37;13.85;;;4.82;;
52534;SDS011;38443;53.164;5.802;2024-02-21T05:17:01;18.42;;;5.50;;
52534;SDS011;38443;53.164;5.802;2024-02-21T05:20:24;15.70;;;5.00;;
52534;SDS011;38443;53.164;5.802;2024-02-21T05:23:49;19.27;;;6.15;;
52534;SDS011;38443;53.164;5.802;2024-02-21T05:27:12;12.95;;;5.55;;
52534;SDS011;38443;53.164;5.802;2024-02-21T05:30:36;16.38;;;5.60;;
52534;SDS011;38443;53.164;5.802;2024-02-21T05:34:15;16.45;;;5.70;;
52534;SDS011;38443;53.164;5.802;2024-02-21T05:37:39;18.90;;;5.82;;
52534;SDS011;38443;53.164;5.802;2024-02-21T05:41:03;22.65;;;6.25;;
52534;SDS011;38443;53.164;5.802;2024-02-21T05:44:27;18.35;;;6.03;;
52534;SDS011;38443;53.164;5.802;2024-02-21T05:47:51;14.35;;;5.63;;
52534;SDS011;38443;53.164;5.802;2024-02-21T05:51:15;12.15;;;5.55;;
52534;SDS011;38443;53.164;5.802;2024-02-21T05:54:39;10.30;;;5.30;;
52534;SDS011;38443;53.164;5.802;2024-02-21T05:58:03;13.45;;;4.95;;
52534;SDS011;38443;53.164;5.802;2024-02-21T06:01:27;23.35;;;5.72;;
52534;SDS011;38443;53.164;5.802;2024-02-21T06:04:52;21.60;;;5.85;;
52534;SDS011;38443;53.164;5.802;2024-02-21T06:08:16;22.88;;;6.63;;
52534;SDS011;38443;53.164;5.802;2024-02-21T06:11:39;18.23;;;4.97;;
52534;SDS011;38443;53.164;5.802;2024-02-21T06:15:03;12.27;;;5.50;;
52534;SDS011;38443;53.164;5.802;2024-02-21T06:18:28;15.80;;;5.57;;
52534;SDS011;38443;53.164;5.802;2024-02-21T06:21:52;16.27;;;5.15;;
52534;SDS011;38443;53.164;5.802;2024-02-21T06:25:15;11.13;;;5.10;;
52534;SDS011;38443;53.164;5.802;2024-02-21T06:28:39;17.52;;;5.55;;
52534;SDS011;38443;53.164;5.802;2024-02-21T06:32:03;18.13;;;6.82;;
52534;SDS011;38443;53.164;5.802;2024-02-21T06:35:28;20.92;;;5.70;;
52534;SDS011;38443;53.164;5.802;2024-02-21T06:38:51;21.23;;;6.00;;
52534;SDS011;38443;53.164;5.802;2024-02-21T06:42:15;19.73;;;5.47;;
52534;SDS011;38443;53.164;5.802;2024-02-21T06:45:39;23.15;;;6.43;;
52534;SDS011;38443;53.164;5.802;2024-02-21T06:49:03;18.13;;;5.30;;
52534;SDS011;38443;53.164;5.802;2024-02-21T06:52:27;13.55;;;5.88;;
52534;SDS011;38443;53.164;5.802;2024-02-21T06:55:51;16.02;;;5.75;;
52534;SDS011;38443;53.164;5.802;2024-02-21T06:59:15;13.98;;;6.18;;
52534;SDS011;38443;53.164;5.802;2024-02-21T07:02:40;22.92;;;7.43;;
52534;SDS011;38443;53.164;5.802;2024-02-21T07:06:04;30.85;;;8.95;;
52534;SDS011;38443;53.164;5.802;2024-02-21T07:09:28;22.23;;;8.85;;
52534;SDS011;38443;53.164;5.802;2024-02-21T07:12:54;22.52;;;8.88;;
52534;SDS011;38443;53.164;5.802;2024-02-21T07:16:17;28.70;;;9.32;;
52534;SDS011;38443;53.164;5.802;2024-02-21T07:19:41;22.65;;;8.82;;
52534;SDS011;38443;53.164;5.802;2024-02-21T07:23:06;21.67;;;8.27;;
52534;SDS011;38443;53.164;5.802;2024-02-21T07:26:31;25.67;;;10.32;;
52534;SDS011;38443;53.164;5.802;2024-02-21T07:29:57;26.65;;;10.50;;
52534;SDS011;38443;53.164;5.802;2024-02-21T07:33:20;35.88;;;11.43;;
52534;SDS011;38443;53.164;5.802;2024-02-21T07:36:44;27.02;;;10.52;;
52534;SDS011;38443;53.164;5.802;2024-02-21T07:40:18;59.15;;;14.73;;
52534;SDS011;38443;53.164;5.802;2024-02-21T07:43:42;28.05;;;11.55;;
52534;SDS011;38443;53.164;5.802;2024-02-21T07:47:06;35.55;;;12.43;;
52534;SDS011;38443;53.164;5.802;2024-02-21T07:50:30;31.50;;;12.95;;
52534;SDS011;38443;53.164;5.802;2024-02-21T07:53:54;28.13;;;11.27;;
52534;SDS011;38443;53.164;5.802;2024-02-21T07:57:18;29.50;;;10.77;;
52534;SDS011;38443;53.164;5.802;2024-02-21T08:00:42;23.17;;;9.48;;
52534;SDS011;38443;53.164;5.802;2024-02-21T08:04:06;25.45;;;9.30;;
52534;SDS011;38443;53.164;5.802;2024-02-21T08:07:30;23.15;;;7.68;;
52534;SDS011;38443;53.164;5.802;2024-02-21T08:10:53;20.60;;;7.30;;
52534;SDS011;38443;53.164;5.802;2024-02-21T08:14:19;22.27;;;8.50;;
52534;SDS011;38443;53.164;5.802;2024-02-21T08:17:43;19.38;;;8.98;;
52534;SDS011;38443;53.164;5.802;2024-02-21T08:21:09;19.77;;;8.10;;
52534;SDS011;38443;53.164;5.802;2024-02-21T08:24:32;20.00;;;6.57;;
52534;SDS011;38443;53.164;5.802;2024-02-21T08:27:59;24.95;;;7.15;;
52534;SDS011;38443;53.164;5.802;2024-02-21T08:31:26;14.68;;;6.82;;
52534;SDS011;38443;53.164;5.802;2024-02-21T08:34:50;17.45;;;5.95;;
52534;SDS011;38443;53.164;5.802;2024-02-21T08:38:14;15.27;;;5.93;;
52534;SDS011;38443;53.164;5.802;2024-02-21T08:41:41;20.33;;;6.70;;
52534;SDS011;38443;53.164;5.802;2024-02-21T08:45:05;14.20;;;7.55;;
52534;SDS011;38443;53.164;5.802;2024-02-21T08:48:30;22.45;;;9.57;;
52534;SDS011;38443;53.164;5.802;2024-02-21T08:51:54;19.60;;;9.68;;
52534;SDS011;38443;53.164;5.802;2024-02-21T08:55:18;26.33;;;12.10;;
52534;SDS011;38443;53.164;5.802;2024-02-21T08:58:42;24.13;;;11.27;;
52534;SDS011;38443;53.164;5.802;2024-02-21T09:02:07;31.30;;;11.10;;
52534;SDS011;38443;53.164;5.802;2024-02-21T09:05:31;25.83;;;12.18;;
52534;SDS011;38443;53.164;5.802;2024-02-21T09:08:57;31.92;;;10.88;;
52534;SDS011;38443;53.164;5.802;2024-02-21T09:12:21;23.98;;;11.70;;
52534;SDS011;38443;53.164;5.802;2024-02-21T09:15:45;24.10;;;11.25;;
52534;SDS011;38443;53.164;5.802;2024-02-21T09:19:09;26.27;;;12.63;;
52534;SDS011;38443;53.164;5.802;2024-02-21T09:22:33;22.27;;;12.30;;
52534;SDS011;38443;53.164;5.802;2024-02-21T09:25:57;25.00;;;11.95;;
52534;SDS011;38443;53.164;5.802;2024-02-21T09:29:21;22.85;;;11.95;;
52534;SDS011;38443;53.164;5.802;2024-02-21T09:32:46;27.17;;;13.15;;
52534;SDS011;38443;53.164;5.802;2024-02-21T09:36:09;29.85;;;14.00;;
52534;SDS011;38443;53.164;5.802;2024-02-21T09:39:33;27.05;;;13.10;;
52534;SDS011;38443;53.164;5.802;2024-02-21T09:43:04;23.88;;;12.50;;
52534;SDS011;38443;53.164;5.802;2024-02-21T09:50:40;28.38;;;12.30;;
52534;SDS011;38443;53.164;5.802;2024-02-21T09:54:05;26.17;;;13.50;;
52534;SDS011;38443;53.164;5.802;2024-02-21T09:57:33;25.65;;;11.93;;
52534;SDS011;38443;53.164;5.802;2024-02-21T10:00:58;25.92;;;12.40;;
52534;SDS011;38443;53.164;5.802;2024-02-21T10:04:24;26.85;;;13.10;;
52534;SDS011;38443;53.164;5.802;2024-02-21T10:07:49;25.83;;;13.00;;
52534;SDS011;38443;53.164;5.802;2024-02-21T10:11:24;27.25;;;12.98;;
52534;SDS011;38443;53.164;5.802;2024-02-21T10:14:48;32.05;;;12.98;;
52534;SDS011;38443;53.164;5.802;2024-02-21T10:18:14;25.75;;;12.82;;
52534;SDS011;38443;53.164;5.802;2024-02-21T10:21:44;27.98;;;12.70;;
52534;SDS011;38443;53.164;5.802;2024-02-21T10:25:11;26.75;;;13.95;;
52534;SDS011;38443;53.164;5.802;2024-02-21T10:28:36;25.55;;;13.45;;
52534;SDS011;38443;53.164;5.802;2024-02-21T10:32:19;30.27;;;13.60;;
52534;SDS011;38443;53.164;5.802;2024-02-21T10:35:46;28.15;;;13.40;;
52534;SDS011;38443;53.164;5.802;2024-02-21T10:39:09;26.88;;;13.82;;
52534;SDS011;38443;53.164;5.802;2024-02-21T10:42:33;28.98;;;14.75;;
52534;SDS011;38443;53.164;5.802;2024-02-21T10:46:08;28.15;;;14.73;;
52534;SDS011;38443;53.164;5.802;2024-02-21T10:49:39;27.88;;;13.88;;
52534;SDS011;38443;53.164;5.802;2024-02-21T10:57:07;26.95;;;13.10;;
52534;SDS011;38443;53.164;5.802;2024-02-21T11:00:34;30.02;;;14.30;;
52534;SDS011;38443;53.164;5.802;2024-02-21T11:04:07;24.67;;;13.05;;
52534;SDS011;38443;53.164;5.802;2024-02-21T11:07:32;32.78;;;13.48;;
52534;SDS011;38443;53.164;5.802;2024-02-21T11:10:59;31.10;;;14.57;;
52534;SDS011;38443;53.164;5.802;2024-02-21T11:14:26;32.47;;;15.10;;
52534;SDS011;38443;53.164;5.802;2024-02-21T11:17:56;26.30;;;13.55;;
52534;SDS011;38443;53.164;5.802;2024-02-21T11:21:35;21.90;;;11.68;;
52534;SDS011;38443;53.164;5.802;2024-02-21T11:25:06;21.38;;;11.85;;
52534;SDS011;38443;53.164;5.802;2024-02-21T11:28:35;23.67;;;12.40;;
52534;SDS011;38443;53.164;5.802;2024-02-21T11:32:05;24.85;;;13.15;;
52534;SDS011;38443;53.164;5.802;2024-02-21T11:35:34;22.17;;;12.63;;
52534;SDS011;38443;53.164;5.802;2024-02-21T11:39:04;25.08;;;14.15;;
52534;SDS011;38443;53.164;5.802;2024-02-21T11:42:29;24.55;;;13.15;;
52534;SDS011;38443;53.164;5.802;2024-02-21T11:46:02;27.33;;;14.18;;
52534;SDS011;38443;53.164;5.802;2024-02-21T11:49:28;23.80;;;13.18;;
52534;SDS011;38443;53.164;5.802;2024-02-21T11:52:55;22.02;;;12.30;;
52534;SDS011;38443;53.164;5.802;2024-02-21T11:56:19;25.35;;;11.85;;
52534;SDS011;38443;53.164;5.802;2024-02-21T11:59:44;26.85;;;13.45;;
52534;SDS011;38443;53.164;5.802;2024-02-21T12:03:08;24.48;;;12.88;;
52534;SDS011;38443;53.164;5.802;2024-02-21T12:06:32;24.95;;;12.93;;
52534;SDS011;38443;53.164;5.802;2024-02-21T12:09:04;23.30;;;10.93;;
52534;SDS011;38443;53.164;5.802;2024-02-21T12:12:31;21.02;;;12.10;;
52534;SDS011;38443;53.164;5.802;2024-02-21T12:15:38;26.75;;;12.02;;
52534;SDS011;38443;53.164;5.802;2024-02-21T12:19:02;25.27;;;12.60;;
52534;SDS011;38443;53.164;5.802;2024-02-21T12:22:18;21.73;;;10.85;;
52534;SDS011;38443;53.164;5.802;2024-02-21T12:25:43;18.20;;;10.95;;
52534;SDS011;38443;53.164;5.802;2024-02-21T12:29:08;19.00;;;10.52;;
52534;SDS011;38443;53.164;5.802;2024-02-21T12:32:35;18.55;;;11.05;;
52534;SDS011;38443;53.164;5.802;2024-02-21T12:36:00;15.20;;;9.55;;
52534;SDS011;38443;53.164;5.802;2024-02-21T12:39:24;16.92;;;11.00;;
52534;SDS011;38443;53.164;5.802;2024-02-21T12:42:48;14.35;;;8.82;;
52534;SDS011;38443;53.164;5.802;2024-02-21T12:46:14;14.70;;;8.77;;
52534;SDS011;38443;53.164;5.802;2024-02-21T12:52:03;13.20;;;7.88;;
52534;SDS011;38443;53.164;5.802;2024-02-21T12:55:27;11.50;;;7.28;;
52534;SDS011;38443;53.164;5.802;2024-02-21T12:58:52;13.50;;;7.78;;
52534;SDS011;38443;53.164;5.802;2024-02-21T13:02:16;11.40;;;6.32;;
52534;SDS011;38443;53.164;5.802;2024-02-21T13:05:40;9.95;;;6.55;;
52534;SDS011;38443;53.164;5.802;2024-02-21T13:09:03;9.40;;;6.30;;
52534;SDS011;38443;53.164;5.802;2024-02-21T13:12:28;11.57;;;7.22;;
52534;SDS011;38443;53.164;5.802;2024-02-21T13:14:55;12.02;;;6.93;;
52534;SDS011;38443;53.164;5.802;2024-02-21T13:18:19;10.68;;;6.90;;
52534;SDS011;38443;53.164;5.802;2024-02-21T13:21:43;12.00;;;7.10;;
52534;SDS011;38443;53.164;5.802;2024-02-21T13:25:06;9.70;;;6.53;;
52534;SDS011;38443;53.164;5.802;2024-02-21T13:28:31;12.55;;;6.60;;
52534;SDS011;38443;53.164;5.802;2024-02-21T13:31:55;12.88;;;6.90;;
52534;SDS011;38443;53.164;5.802;2024-02-21T13:35:19;10.05;;;5.53;;
52534;SDS011;38443;53.164;5.802;2024-02-21T13:38:44;11.35;;;6.15;;
52534;SDS011;38443;53.164;5.802;2024-02-21T13:42:08;10.48;;;6.07;;
52534;SDS011;38443;53.164;5.802;2024-02-21T13:45:32;12.70;;;6.65;;
52534;SDS011;38443;53.164;5.802;2024-02-21T13:49:03;9.05;;;5.80;;
52534;SDS011;38443;53.164;5.802;2024-02-21T13:52:29;11.70;;;6.25;;
52534;SDS011;38443;53.164;5.802;2024-02-21T13:54:56;7.80;;;5.90;;
52534;SDS011;38443;53.164;5.802;2024-02-21T13:58:01;8.65;;;5.38;;
52534;SDS011;38443;53.164;5.802;2024-02-21T14:00:30;11.20;;;6.45;;
52534;SDS011;38443;53.164;5.802;2024-02-21T14:03:07;11.52;;;6.30;;
52534;SDS011;38443;53.164;5.802;2024-02-21T14:06:32;11.63;;;6.75;;
52534;SDS011;38443;53.164;5.802;2024-02-21T14:08:57;7.97;;;6.28;;
52534;SDS011;38443;53.164;5.802;2024-02-21T14:11:25;8.75;;;6.18;;
52534;SDS011;38443;53.164;5.802;2024-02-21T14:14:49;10.23;;;6.72;;
52534;SDS011;38443;53.164;5.802;2024-02-21T14:18:14;11.05;;;6.40;;
52534;SDS011;38443;53.164;5.802;2024-02-21T14:21:39;13.90;;;7.30;;
52534;SDS011;38443;53.164;5.802;2024-02-21T14:27:32;10.50;;;6.65;;
52534;SDS011;38443;53.164;5.802;2024-02-21T14:30:58;10.45;;;6.20;;
52534;SDS011;38443;53.164;5.802;2024-02-21T14:33:28;12.02;;;6.65;;
52534;SDS011;38443;53.164;5.802;2024-02-21T14:36:05;10.60;;;6.70;;
52534;SDS011;38443;53.164;5.802;2024-02-21T14:40:57;11.68;;;6.78;;
52534;SDS011;38443;53.164;5.802;2024-02-21T14:44:20;10.93;;;6.82;;
52534;SDS011;38443;53.164;5.802;2024-02-21T14:47:44;11.10;;;6.40;;
52534;SDS011;38443;53.164;5.802;2024-02-21T14:51:08;15.00;;;7.72;;
52534;SDS011;38443;53.164;5.802;2024-02-21T14:54:32;10.75;;;6.38;;
52534;SDS011;38443;53.164;5.802;2024-02-21T14:57:56;11.43;;;7.00;;
52534;SDS011;38443;53.164;5.802;2024-02-21T15:01:19;14.90;;;7.28;;
52534;SDS011;38443;53.164;5.802;2024-02-21T15:04:43;9.60;;;6.53;;
52534;SDS011;38443;53.164;5.802;2024-02-21T15:10:33;14.98;;;8.13;;
52534;SDS011;38443;53.164;5.802;2024-02-21T15:13:56;8.82;;;6.53;;
52534;SDS011;38443;53.164;5.802;2024-02-21T15:17:20;10.65;;;7.22;;
52534;SDS011;38443;53.164;5.802;2024-02-21T15:20:44;10.95;;;7.93;;
52534;SDS011;38443;53.164;5.802;2024-02-21T15:23:19;11.65;;;7.25;;
52534;SDS011;38443;53.164;5.802;2024-02-21T15:25:58;11.00;;;6.65;;
52534;SDS011;38443;53.164;5.802;2024-02-21T15:29:22;14.25;;;7.13;;
52534;SDS011;38443;53.164;5.802;2024-02-21T15:32:46;9.55;;;6.55;;
52534;SDS011;38443;53.164;5.802;2024-02-21T15:36:10;10.82;;;6.65;;
52534;SDS011;38443;53.164;5.802;2024-02-21T15:41:00;11.90;;;7.00;;
52534;SDS011;38443;53.164;5.802;2024-02-21T15:43:39;11.52;;;8.70;;
52534;SDS011;38443;53.164;5.802;2024-02-21T15:46:10;10.93;;;6.75;;
52534;SDS011;38443;53.164;5.802;2024-02-21T15:48:43;11.50;;;7.07;;
52534;SDS011;38443;53.164;5.802;2024-02-21T15:51:31;13.30;;;6.70;;
52534;SDS011;38443;53.164;5.802;2024-02-21T15:54:55;10.98;;;6.38;;
52534;SDS011;38443;53.164;5.802;2024-02-21T15:58:18;10.32;;;6.55;;
52534;SDS011;38443;53.164;5.802;2024-02-21T16:01:09;10.90;;;6.63;;
52534;SDS011;38443;53.164;5.802;2024-02-21T16:04:33;10.55;;;7.28;;
52534;SDS011;38443;53.164;5.802;2024-02-21T16:07:57;10.85;;;6.32;;
52534;SDS011;38443;53.164;5.802;2024-02-21T16:11:21;12.93;;;6.88;;
52534;SDS011;38443;53.164;5.802;2024-02-21T16:14:45;12.60;;;6.88;;
52534;SDS011;38443;53.164;5.802;2024-02-21T16:18:12;13.90;;;8.30;;
52534;SDS011;38443;53.164;5.802;2024-02-21T16:21:36;19.67;;;9.40;;
52534;SDS011;38443;53.164;5.802;2024-02-21T16:25:00;16.73;;;8.63;;
52534;SDS011;38443;53.164;5.802;2024-02-21T16:28:26;17.88;;;8.52;;
52534;SDS011;38443;53.164;5.802;2024-02-21T16:31:50;15.18;;;8.23;;
52534;SDS011;38443;53.164;5.802;2024-02-21T16:35:14;17.45;;;8.15;;
52534;SDS011;38443;53.164;5.802;2024-02-21T16:38:20;12.73;;;7.45;;
52534;SDS011;38443;53.164;5.802;2024-02-21T16:41:07;18.33;;;8.70;;
52534;SDS011;38443;53.164;5.802;2024-02-21T16:44:28;12.82;;;7.35;;
52534;SDS011;38443;53.164;5.802;2024-02-21T16:47:52;11.15;;;6.97;;
52534;SDS011;38443;53.164;5.802;2024-02-21T16:50:30;12.00;;;7.20;;
52534;SDS011;38443;53.164;5.802;2024-02-21T16:53:50;16.88;;;6.88;;
52534;SDS011;38443;53.164;5.802;2024-02-21T16:56:33;10.63;;;6.88;;
52534;SDS011;38443;53.164;5.802;2024-02-21T16:59:56;12.60;;;6.60;;
52534;SDS011;38443;53.164;5.802;2024-02-21T17:03:21;11.05;;;6.72;;
52534;SDS011;38443;53.164;5.802;2024-02-21T17:06:46;10.82;;;6.80;;
52534;SDS011;38443;53.164;5.802;2024-02-21T17:10:10;14.85;;;7.45;;
52534;SDS011;38443;53.164;5.802;2024-02-21T17:13:33;14.60;;;7.45;;
52534;SDS011;38443;53.164;5.802;2024-02-21T17:16:58;10.25;;;6.78;;
52534;SDS011;38443;53.164;5.802;2024-02-21T17:20:22;11.55;;;7.57;;
52534;SDS011;38443;53.164;5.802;2024-02-21T17:23:28;13.13;;;7.38;;
52534;SDS011;38443;53.164;5.802;2024-02-21T17:26:53;10.93;;;6.80;;
52534;SDS011;38443;53.164;5.802;2024-02-21T17:30:17;10.90;;;7.03;;
52534;SDS011;38443;53.164;5.802;2024-02-21T17:33:42;13.63;;;6.30;;
52534;SDS011;38443;53.164;5.802;2024-02-21T17:37:06;9.65;;;6.13;;
52534;SDS011;38443;53.164;5.802;2024-02-21T17:40:31;12.43;;;6.18;;
52534;SDS011;38443;53.164;5.802;2024-02-21T17:43:56;9.07;;;6.00;;
52534;SDS011;38443;53.164;5.802;2024-02-21T17:47:20;9.55;;;6.13;;
52534;SDS011;38443;53.164;5.802;2024-02-21T17:53:09;9.57;;;5.78;;
52534;SDS011;38443;53.164;5.802;2024-02-21T17:56:31;11.60;;;6.90;;
52534;SDS011;38443;53.164;5.802;2024-02-21T17:59:55;11.48;;;6.90;;
52534;SDS011;38443;53.164;5.802;2024-02-21T18:03:22;9.40;;;5.60;;
52534;SDS011;38443;53.164;5.802;2024-02-21T18:06:46;11.63;;;6.13;;
52534;SDS011;38443;53.164;5.802;2024-02-21T18:09:57;11.18;;;6.68;;
52534;SDS011;38443;53.164;5.802;2024-02-21T18:13:10;12.63;;;6.50;;
52534;SDS011;38443;53.164;5.802;2024-02-21T18:16:34;14.30;;;6.57;;
52534;SDS011;38443;53.164;5.802;2024-02-21T18:19:58;10.32;;;6.72;;
52534;SDS011;38443;53.164;5.802;2024-02-21T18:23:22;9.02;;;7.07;;
52534;SDS011;38443;53.164;5.802;2024-02-21T18:26:46;9.85;;;6.50;;
52534;SDS011;38443;53.164;5.802;2024-02-21T18:30:11;10.15;;;6.72;;
52534;SDS011;38443;53.164;5.802;2024-02-21T18:33:35;9.48;;;6.50;;
52534;SDS011;38443;53.164;5.802;2024-02-21T18:40:17;12.27;;;6.72;;
52534;SDS011;38443;53.164;5.802;2024-02-21T18:43:41;9.63;;;6.60;;
52534;SDS011;38443;53.164;5.802;2024-02-21T18:46:28;10.68;;;6.75;;
52534;SDS011;38443;53.164;5.802;2024-02-21T18:49:52;10.00;;;6.65;;
52534;SDS011;38443;53.164;5.802;2024-02-21T18:53:16;10.10;;;6.78;;
52534;SDS011;38443;53.164;5.802;2024-02-21T18:56:44;10.38;;;7.35;;
52534;SDS011;38443;53.164;5.802;2024-02-21T19:00:08;8.63;;;6.70;;
52534;SDS011;38443;53.164;5.802;2024-02-21T19:03:32;9.25;;;6.55;;
52534;SDS011;38443;53.164;5.802;2024-02-21T19:06:56;12.43;;;6.85;;
52534;SDS011;38443;53.164;5.802;2024-02-21T19:10:20;9.60;;;6.78;;
52534;SDS011;38443;53.164;5.802;2024-02-21T19:13:19;14.15;;;7.55;;
52534;SDS011;38443;53.164;5.802;2024-02-21T19:16:43;10.13;;;6.82;;
52534;SDS011;38443;53.164;5.802;2024-02-21T19:20:07;11.27;;;7.32;;
52534;SDS011;38443;53.164;5.802;2024-02-21T19:23:33;11.60;;;6.65;;
52534;SDS011;38443;53.164;5.802;2024-02-21T19:26:57;9.38;;;6.63;;
52534;SDS011;38443;53.164;5.802;2024-02-21T19:30:21;10.23;;;6.93;;
52534;SDS011;38443;53.164;5.802;2024-02-21T19:33:45;12.40;;;7.47;;
52534;SDS011;38443;53.164;5.802;2024-02-21T19:37:09;11.93;;;6.93;;
52534;SDS011;38443;53.164;5.802;2024-02-21T19:40:34;11.30;;;7.05;;
52534;SDS011;38443;53.164;5.802;2024-02-21T19:43:57;10.93;;;7.30;;
52534;SDS011;38443;53.164;5.802;2024-02-21T19:47:21;10.30;;;7.18;;
52534;SDS011;38443;53.164;5.802;2024-02-21T19:50:45;11.60;;;7.22;;
52534;SDS011;38443;53.164;5.802;2024-02-21T19:54:10;11.55;;;7.45;;
52534;SDS011;38443;53.164;5.802;2024-02-21T19:57:34;11.70;;;7.30;;
52534;SDS011;38443;53.164;5.802;2024-02-21T20:00:58;10.60;;;7.53;;
52534;SDS011;38443;53.164;5.802;2024-02-21T20:04:23;17.38;;;8.13;;
52534;SDS011;38443;53.164;5.802;2024-02-21T20:07:48;11.65;;;7.70;;
52534;SDS011;38443;53.164;5.802;2024-02-21T20:11:12;11.60;;;7.35;;
52534;SDS011;38443;53.164;5.802;2024-02-21T20:14:36;11.98;;;7.10;;
52534;SDS011;38443;53.164;5.802;2024-02-21T20:17:59;13.27;;;8.25;;